KCRG/CRG METAR and TAF weather

Enter ICAO airport designator
Station Type Date Time Source
KCRG METAR 2018/12/13 15:53 UTC NOAA

KCRG 131553Z 08007KT 10SM OVC060 18/13 A3023 RMK AO2 SLP236 T01780133


Station Type Date Time Source
KCRG Decoded METAR 2018/12/13 15:53 UTC NOAA

JACKSONVILLE CRAIG MUN, FL, United States (KCRG) 30-20N 81-31W 13M
Dec 13, 2018 - 10:53 AM EST / 2018.12.13 1553 UTC
Wind: from the E (080 degrees) at 8 MPH (7 KT):0
Visibility: 10 mile(s):0
Sky conditions: overcast
Temperature: 64.0 F (17.8 C)
Dew Point: 55.9 F (13.3 C)
Relative Humidity: 74%
Pressure (altimeter): 30.23 in. Hg (1023 hPa)
ob: KCRG 131553Z 08007KT 10SM OVC060 18/13 A3023 RMK AO2 SLP236 T01780133
cycle: 16

Station Type Date Time Source
KCRG TAF 2018/12/13 12:22 UTC NOAA

TAF KCRG 131120Z 1312/1412 VRB02KT P6SM OVC060
FM131500 09009KT P6SM OVC050
FM140600 15008KT 5SM BR OVC035


Example: see airport list